Time;durP1;ratioP1;P1;durP2;ratioP2;P2;SDS_P1;SDS_P2;PMS_P1;PMS_P2;Temp;Humidity;BMP_temperature;BMP_pressure;BME280_temperature;BME280_humidity;BME280_pressure;Samples;Min_cycle;Max_cycle;Signal;HPM_P1;HPM_P2
2021/04/25 00:01:01;;;;;;;5.15;2.65;;;;;;;;;;5073770;28;20071;-61
2021/04/25 00:03:46;;;;;;;6.40;2.63;;;;;;;;;;5058842;28;20044;-61
2021/04/25 00:06:32;;;;;;;10.88;3.08;;;;;;;;;;5053932;28;20049;-61
2021/04/25 00:09:20;;;;;;;5.60;2.33;;;;;;;;;;5053790;28;20060;-61
2021/04/25 00:12:05;;;;;;;9.05;2.35;;;;;;;;;;5053614;28;20411;-61
2021/04/25 00:14:51;;;;;;;5.10;3.13;;;;;;;;;;5054826;28;20049;-61
2021/04/25 00:17:38;;;;;;;5.30;2.30;;;;;;;;;;5053711;28;20059;-61
2021/04/25 00:20:23;;;;;;;6.32;2.53;;;;;;;;;;5053368;28;20041;-61
2021/04/25 00:23:09;;;;;;;6.57;2.58;;;;;;;;;;5058828;28;20093;-61
2021/04/25 00:25:54;;;;;;;6.68;2.65;;;;;;;;;;5073406;28;20517;-61
2021/04/25 00:28:39;;;;;;;9.55;3.00;;;;;;;;;;5073353;28;20139;-61
2021/04/25 00:31:25;;;;;;;5.78;2.92;;;;;;;;;;5072974;28;20053;-61
2021/04/25 00:34:10;;;;;;;5.72;2.65;;;;;;;;;;5061853;28;20048;-61
2021/04/25 00:36:56;;;;;;;6.38;2.53;;;;;;;;;;5053235;28;20122;-62
2021/04/25 00:39:41;;;;;;;3.33;2.22;;;;;;;;;;5052789;28;20053;-61
2021/04/25 00:42:28;;;;;;;8.23;3.30;;;;;;;;;;5053260;28;20077;-61
2021/04/25 00:45:14;;;;;;;8.60;2.70;;;;;;;;;;5079093;22;20426;-61
2021/04/25 00:47:59;;;;;;;8.02;2.30;;;;;;;;;;5072897;28;20044;-61
2021/04/25 00:50:45;;;;;;;4.10;2.40;;;;;;;;;;5072773;28;20045;-61
2021/04/25 00:53:30;;;;;;;9.77;2.45;;;;;;;;;;5071813;28;20513;-61
2021/04/25 00:56:15;;;;;;;9.02;2.70;;;;;;;;;;5052623;28;20052;-61
2021/04/25 00:59:00;;;;;;;5.10;1.85;;;;;;;;;;5052034;28;20051;-61
2021/04/25 01:01:46;;;;;;;5.30;1.48;;;;;;;;;;5052714;28;20072;-61
2021/04/25 01:04:33;;;;;;;4.80;2.17;;;;;;;;;;5052823;28;20041;-61
2021/04/25 01:07:18;;;;;;;5.95;1.42;;;;;;;;;;5052821;28;20076;-61
2021/04/25 01:10:03;;;;;;;7.07;1.35;;;;;;;;;;5052445;28;20045;-61
2021/04/25 01:12:48;;;;;;;7.88;1.85;;;;;;;;;;5052513;28;20048;-61
2021/04/25 01:15:34;;;;;;;5.35;1.52;;;;;;;;;;5063334;28;20574;-61
2021/04/25 01:18:19;;;;;;;5.90;1.52;;;;;;;;;;5072422;28;20078;-61
2021/04/25 01:21:05;;;;;;;6.13;1.77;;;;;;;;;;5072089;28;20044;-62
2021/04/25 01:23:50;;;;;;;6.53;1.60;;;;;;;;;;5072203;28;20509;-61
2021/04/25 01:26:36;;;;;;;7.18;1.38;;;;;;;;;;5055319;28;20431;-62
2021/04/25 01:29:21;;;;;;;3.67;1.40;;;;;;;;;;5052160;28;20049;-62
2021/04/25 01:32:07;;;;;;;6.60;1.63;;;;;;;;;;5052440;28;20072;-61
2021/04/25 01:34:52;;;;;;;7.38;1.35;;;;;;;;;;5052123;28;20095;-61
2021/04/25 01:37:38;;;;;;;6.90;1.70;;;;;;;;;;5052206;28;20053;-61
2021/04/25 01:40:25;;;;;;;6.32;1.58;;;;;;;;;;5051886;28;20045;-62
2021/04/25 01:43:11;;;;;;;6.93;1.90;;;;;;;;;;5052176;28;20051;-61
2021/04/25 01:45:57;;;;;;;4.47;1.40;;;;;;;;;;5057417;28;20037;-62
2021/04/25 01:48:42;;;;;;;5.72;1.77;;;;;;;;;;5072193;28;20052;-63
2021/04/25 01:51:27;;;;;;;7.72;2.38;;;;;;;;;;5071515;28;20052;-62
2021/04/25 01:54:13;;;;;;;6.10;1.88;;;;;;;;;;5071964;28;20048;-63
2021/04/25 01:56:58;;;;;;;4.18;1.80;;;;;;;;;;5060328;28;20048;-62
2021/04/25 01:59:43;;;;;;;6.32;1.60;;;;;;;;;;5051722;28;20059;-62
2021/04/25 02:02:29;;;;;;;6.35;1.50;;;;;;;;;;5051827;28;20045;-62
2021/04/25 02:05:14;;;;;;;6.32;2.05;;;;;;;;;;5052571;28;20044;-62
2021/04/25 02:08:00;;;;;;;7.45;2.08;;;;;;;;;;5072368;28;20445;-62
2021/04/25 02:10:45;;;;;;;7.68;2.22;;;;;;;;;;5075737;28;20056;-62
2021/04/25 02:13:30;;;;;;;11.90;2.10;;;;;;;;;;5075735;28;20568;-62
2021/04/25 02:16:16;;;;;;;3.72;1.75;;;;;;;;;;5075252;28;20106;-62
2021/04/25 02:19:01;;;;;;;8.63;1.90;;;;;;;;;;5054501;28;20049;-61
2021/04/25 02:21:47;;;;;;;7.85;3.30;;;;;;;;;;5054072;28;20132;-62
2021/04/25 02:24:32;;;;;;;6.03;2.33;;;;;;;;;;5055766;28;20053;-62
2021/04/25 02:27:18;;;;;;;7.40;1.98;;;;;;;;;;5059007;28;20049;-62
2021/04/25 02:30:05;;;;;;;7.30;2.30;;;;;;;;;;5075243;28;20044;-62
2021/04/25 02:32:50;;;;;;;5.30;1.98;;;;;;;;;;5075663;28;20098;-63
2021/04/25 02:35:35;;;;;;;5.60;2.72;;;;;;;;;;5075498;28;20406;-63
2021/04/25 02:38:21;;;;;;;12.48;3.83;;;;;;;;;;5073151;28;20045;-62
2021/04/25 02:41:06;;;;;;;5.00;1.63;;;;;;;;;;5075317;28;20141;-62
2021/04/25 02:43:51;;;;;;;13.95;2.30;;;;;;;;;;5075245;28;20045;-62
2021/04/25 02:46:37;;;;;;;8.15;2.13;;;;;;;;;;5075233;28;20048;-62
2021/04/25 02:49:22;;;;;;;5.18;1.77;;;;;;;;;;5060173;28;20052;-62
2021/04/25 02:52:08;;;;;;;8.35;2.20;;;;;;;;;;5055277;28;20126;-63
2021/04/25 02:54:56;;;;;;;3.90;1.92;;;;;;;;;;5054969;28;20041;-62
2021/04/25 02:57:41;;;;;;;5.40;2.22;;;;;;;;;;5055041;28;20040;-63
2021/04/25 03:00:27;;;;;;;7.57;1.60;;;;;;;;;;5055378;28;20171;-62
2021/04/25 03:03:12;;;;;;;6.13;2.05;;;;;;;;;;5054950;28;20050;-61
2021/04/25 03:05:59;;;;;;;3.58;1.27;;;;;;;;;;5055106;28;20075;-62
2021/04/25 03:08:44;;;;;;;3.55;1.20;;;;;;;;;;5054841;28;20052;-62
2021/04/25 03:11:29;;;;;;;7.88;1.70;;;;;;;;;;5074516;28;20047;-62
2021/04/25 03:14:15;;;;;;;5.43;1.67;;;;;;;;;;5074894;28;20099;-62
2021/04/25 03:17:00;;;;;;;4.65;1.55;;;;;;;;;;5074242;28;20048;-62
2021/04/25 03:19:46;;;;;;;6.22;1.88;;;;;;;;;;5070756;28;20041;-63
2021/04/25 03:22:31;;;;;;;4.18;2.20;;;;;;;;;;5054539;28;20487;-62
2021/04/25 03:25:17;;;;;;;10.32;1.83;;;;;;;;;;5039572;28;20216;-61
2021/04/25 03:28:02;;;;;;;10.57;1.92;;;;;;;;;;5054536;28;20052;-61
2021/04/25 03:30:48;;;;;;;6.18;1.38;;;;;;;;;;5061088;28;20101;-61
2021/04/25 03:33:33;;;;;;;4.95;1.20;;;;;;;;;;5074438;28;20048;-61
2021/04/25 03:36:19;;;;;;;5.95;2.00;;;;;;;;;;5074359;28;20286;-61
2021/04/25 03:39:05;;;;;;;11.43;2.10;;;;;;;;;;5074496;28;20049;-62
2021/04/25 03:41:50;;;;;;;6.88;1.55;;;;;;;;;;5071688;28;20048;-60
2021/04/25 03:44:35;;;;;;;9.25;1.27;;;;;;;;;;5074108;28;20072;-61
2021/04/25 03:47:21;;;;;;;8.05;1.42;;;;;;;;;;5074053;28;20078;-62
2021/04/25 03:50:07;;;;;;;3.47;1.15;;;;;;;;;;5074002;28;20044;-61
2021/04/25 03:52:52;;;;;;;12.35;2.53;;;;;;;;;;5055156;28;20049;-61
2021/04/25 03:55:37;;;;;;;4.80;1.33;;;;;;;;;;5052907;28;20045;-61
2021/04/25 03:58:23;;;;;;;5.38;1.40;;;;;;;;;;5054101;28;20132;-61
2021/04/25 04:01:08;;;;;;;16.30;1.98;;;;;;;;;;5054146;28;20040;-61
2021/04/25 04:03:54;;;;;;;4.45;1.30;;;;;;;;;;5073726;28;20166;-62
2021/04/25 04:06:39;;;;;;;6.55;1.33;;;;;;;;;;5073935;28;20052;-62
2021/04/25 04:09:24;;;;;;;7.40;1.45;;;;;;;;;;5073691;28;20048;-61
2021/04/25 04:12:10;;;;;;;3.95;1.13;;;;;;;;;;5066852;28;20612;-62
2021/04/25 04:14:55;;;;;;;3.92;1.10;;;;;;;;;;5053577;28;20048;-61
2021/04/25 04:17:40;;;;;;;7.47;1.38;;;;;;;;;;5053592;28;20048;-62
2021/04/25 04:20:26;;;;;;;6.18;1.33;;;;;;;;;;5053269;28;20068;-62
2021/04/25 04:23:11;;;;;;;7.45;1.45;;;;;;;;;;5064972;28;20051;-61
2021/04/25 04:25:57;;;;;;;3.53;1.10;;;;;;;;;;5072526;28;20059;-61
2021/04/25 04:28:43;;;;;;;8.80;1.50;;;;;;;;;;5072484;28;20125;-61
2021/04/25 04:31:28;;;;;;;7.30;1.42;;;;;;;;;;5073160;28;20048;-61
2021/04/25 04:34:14;;;;;;;7.28;1.45;;;;;;;;;;5055650;28;20308;-62
2021/04/25 04:36:59;;;;;;;7.32;1.48;;;;;;;;;;5053162;28;20041;-62
2021/04/25 04:39:45;;;;;;;7.18;1.05;;;;;;;;;;5052879;28;20490;-62
2021/04/25 04:42:30;;;;;;;4.53;1.17;;;;;;;;;;5053005;28;20048;-61
2021/04/25 04:45:16;;;;;;;8.35;1.70;;;;;;;;;;5052938;28;20037;-62
2021/04/25 04:48:02;;;;;;;12.63;2.13;;;;;;;;;;5052959;28;20071;-63
2021/04/25 04:50:47;;;;;;;6.07;1.17;;;;;;;;;;5052797;28;20434;-61
2021/04/25 04:53:32;;;;;;;4.97;1.13;;;;;;;;;;5053006;28;20190;-62
2021/04/25 04:56:17;;;;;;;10.32;1.90;;;;;;;;;;5036761;28;20049;-62
2021/04/25 04:59:02;;;;;;;5.50;1.13;;;;;;;;;;5052899;28;20052;-62
2021/04/25 05:01:48;;;;;;;6.70;1.55;;;;;;;;;;5066035;28;20182;-63
2021/04/25 05:04:33;;;;;;;7.50;1.27;;;;;;;;;;5072671;28;20052;-62
2021/04/25 05:07:19;;;;;;;5.88;1.83;;;;;;;;;;5072661;28;20603;-62
2021/04/25 05:10:04;;;;;;;9.85;2.17;;;;;;;;;;5072388;28;20049;-62
2021/04/25 05:12:49;;;;;;;8.40;1.42;;;;;;;;;;5052482;28;20491;-62
2021/04/25 05:15:35;;;;;;;5.50;1.48;;;;;;;;;;5052189;28;20048;-62
2021/04/25 05:18:21;;;;;;;6.35;1.15;;;;;;;;;;5052482;28;20072;-63
2021/04/25 05:21:06;;;;;;;4.22;1.30;;;;;;;;;;5053080;28;20041;-63
2021/04/25 05:23:51;;;;;;;5.60;1.35;;;;;;;;;;5052445;28;20056;-62
2021/04/25 05:26:37;;;;;;;7.00;1.13;;;;;;;;;;5052444;28;20134;-63
2021/04/25 05:29:22;;;;;;;5.72;1.67;;;;;;;;;;5052006;28;20055;-62
2021/04/25 05:32:08;;;;;;;10.75;2.30;;;;;;;;;;5059586;28;20075;-62
2021/04/25 05:34:53;;;;;;;6.00;1.40;;;;;;;;;;5072212;28;20051;-62
2021/04/25 05:37:39;;;;;;;3.65;1.20;;;;;;;;;;5072121;28;20044;-62
2021/04/25 05:40:24;;;;;;;6.32;1.95;;;;;;;;;;5071790;28;20495;-62
2021/04/25 05:43:09;;;;;;;7.05;1.08;;;;;;;;;;5058036;28;20072;-62
2021/04/25 05:45:55;;;;;;;5.43;1.70;;;;;;;;;;5051248;28;20072;-62
2021/04/25 05:48:44;;;;;;;6.05;1.42;;;;;;;;;;5052059;28;20068;-62
2021/04/25 05:51:29;;;;;;;7.95;1.30;;;;;;;;;;5051742;28;20080;-62
2021/04/25 05:54:15;;;;;;;7.10;1.45;;;;;;;;;;5069610;28;20049;-62
2021/04/25 05:57:01;;;;;;;7.25;1.48;;;;;;;;;;5072027;28;20109;-62
2021/04/25 05:59:46;;;;;;;3.88;1.48;;;;;;;;;;5071753;28;20041;-62
2021/04/25 06:02:32;;;;;;;6.57;1.48;;;;;;;;;;5069636;28;20045;-62
2021/04/25 06:05:17;;;;;;;7.07;1.30;;;;;;;;;;5051843;28;20048;-62
2021/04/25 06:08:02;;;;;;;10.50;2.97;;;;;;;;;;5051888;28;20088;-62
2021/04/25 06:10:48;;;;;;;8.40;1.33;;;;;;;;;;5051505;28;20145;-62
2021/04/25 06:13:33;;;;;;;6.03;1.05;;;;;;;;;;5051788;28;20056;-62
2021/04/25 06:16:19;;;;;;;9.82;1.33;;;;;;;;;;5049947;28;20045;-61
2021/04/25 06:19:04;;;;;;;4.00;1.17;;;;;;;;;;5051067;28;20053;-62
2021/04/25 06:21:49;;;;;;;9.05;2.45;;;;;;;;;;5051765;28;20072;-62
2021/04/25 06:24:35;;;;;;;2.78;1.58;;;;;;;;;;5048153;28;20040;-62
2021/04/25 06:27:20;;;;;;;5.50;1.45;;;;;;;;;;5071331;28;20059;-63
2021/04/25 06:30:06;;;;;;;6.32;1.38;;;;;;;;;;5071610;28;20137;-62
2021/04/25 06:32:51;;;;;;;5.90;1.08;;;;;;;;;;5071662;28;20041;-61
2021/04/25 06:35:36;;;;;;;5.57;1.75;;;;;;;;;;5053021;28;20423;-62
2021/04/25 06:38:22;;;;;;;5.53;1.08;;;;;;;;;;5051301;28;20099;-63
2021/04/25 06:41:07;;;;;;;7.47;1.27;;;;;;;;;;5051250;28;20124;-63
2021/04/25 06:43:53;;;;;;;5.38;0.95;;;;;;;;;;5051191;28;20646;-61
2021/04/25 06:46:38;;;;;;;7.53;1.60;;;;;;;;;;5052046;28;20087;-62
2021/04/25 06:49:24;;;;;;;7.68;1.60;;;;;;;;;;5051391;28;20049;-63
2021/04/25 06:52:12;;;;;;;4.78;1.00;;;;;;;;;;5053691;28;20076;-62
2021/04/25 06:54:57;;;;;;;7.65;1.70;;;;;;;;;;5055172;28;20049;-63
2021/04/25 06:57:43;;;;;;;8.27;1.13;;;;;;;;;;5054857;28;20520;-62
2021/04/25 07:00:28;;;;;;;9.15;2.22;;;;;;;;;;5054776;28;20511;-61
2021/04/25 07:03:13;;;;;;;6.15;1.38;;;;;;;;;;5055197;28;20045;-62
2021/04/25 07:05:59;;;;;;;8.10;0.77;;;;;;;;;;5066108;28;20059;-62
2021/04/25 07:08:45;;;;;;;4.88;1.23;;;;;;;;;;5073920;28;20044;-63
2021/04/25 07:11:31;;;;;;;5.97;1.30;;;;;;;;;;5074378;28;20056;-62
2021/04/25 07:14:16;;;;;;;6.57;1.08;;;;;;;;;;5074553;28;20117;-62
2021/04/25 07:17:02;;;;;;;3.60;1.88;;;;;;;;;;5072335;28;20049;-61
2021/04/25 07:19:48;;;;;;;7.35;1.20;;;;;;;;;;5074033;28;20048;-62
2021/04/25 07:22:33;;;;;;;6.40;1.40;;;;;;;;;;5074836;28;20041;-62
2021/04/25 07:25:19;;;;;;;5.20;1.10;;;;;;;;;;5073117;28;20052;-62
2021/04/25 07:28:04;;;;;;;7.05;1.30;;;;;;;;;;5054379;28;20053;-61
2021/04/25 07:30:50;;;;;;;4.60;1.63;;;;;;;;;;5055182;28;20033;-63
2021/04/25 07:33:36;;;;;;;7.15;1.50;;;;;;;;;;5054370;28;20036;-61
2021/04/25 07:36:21;;;;;;;5.70;1.42;;;;;;;;;;5060382;28;20048;-62
2021/04/25 07:39:07;;;;;;;7.43;1.77;;;;;;;;;;5074318;28;20490;-62
2021/04/25 07:41:52;;;;;;;8.82;1.48;;;;;;;;;;5074319;28;20051;-62
2021/04/25 07:44:40;;;;;;;7.65;1.50;;;;;;;;;;5073980;28;20044;-62
2021/04/25 07:47:26;;;;;;;9.40;1.52;;;;;;;;;;5073579;28;20048;-62
2021/04/25 07:50:13;;;;;;;7.32;2.63;;;;;;;;;;5073883;28;20040;-63
2021/04/25 07:53:00;;;;;;;6.82;1.52;;;;;;;;;;5074012;28;20068;-62
2021/04/25 07:55:46;;;;;;;7.50;2.13;;;;;;;;;;5074051;28;20049;-63
2021/04/25 07:58:31;;;;;;;6.85;1.42;;;;;;;;;;5072687;28;20127;-61
2021/04/25 08:01:16;;;;;;;6.85;1.55;;;;;;;;;;5072649;28;20048;-62
2021/04/25 08:04:01;;;;;;;3.78;1.40;;;;;;;;;;5072750;28;20041;-62
2021/04/25 08:06:46;;;;;;;8.25;1.15;;;;;;;;;;5070907;28;20044;-62
2021/04/25 08:09:32;;;;;;;4.07;0.90;;;;;;;;;;5053367;28;20127;-62
2021/04/25 08:12:17;;;;;;;5.97;1.13;;;;;;;;;;5053686;28;20041;-61
2021/04/25 08:15:03;;;;;;;24.27;4.82;;;;;;;;;;5053664;28;20136;-62
2021/04/25 08:17:48;;;;;;;6.28;1.30;;;;;;;;;;5061239;28;20445;-62
2021/04/25 08:20:33;;;;;;;1.88;0.98;;;;;;;;;;5073414;28;20123;-62
2021/04/25 08:23:19;;;;;;;12.18;1.35;;;;;;;;;;5073585;28;20131;-61
2021/04/25 08:26:05;;;;;;;6.05;1.00;;;;;;;;;;5073358;28;20040;-62
2021/04/25 08:28:50;;;;;;;5.00;1.08;;;;;;;;;;5059629;28;20041;-63
2021/04/25 08:31:35;;;;;;;6.88;1.13;;;;;;;;;;5053122;28;20422;-61
2021/04/25 08:34:21;;;;;;;4.53;1.20;;;;;;;;;;5053288;28;20044;-63
2021/04/25 08:37:06;;;;;;;6.45;1.67;;;;;;;;;;5053412;28;20495;-62
2021/04/25 08:39:51;;;;;;;4.28;0.82;;;;;;;;;;5071260;28;20402;-62
2021/04/25 08:42:37;;;;;;;3.22;0.70;;;;;;;;;;5073168;28;20072;-62
2021/04/25 08:45:22;;;;;;;2.78;0.63;;;;;;;;;;5070970;28;20045;-62
2021/04/25 08:48:07;;;;;;;11.80;1.73;;;;;;;;;;5073143;28;20053;-61
2021/04/25 08:50:53;;;;;;;8.23;1.83;;;;;;;;;;5071753;28;20056;-62
2021/04/25 08:53:39;;;;;;;8.50;1.58;;;;;;;;;;5072999;28;20052;-62
2021/04/25 08:56:25;;;;;;;7.00;1.58;;;;;;;;;;5062252;28;20049;-62
2021/04/25 08:59:10;;;;;;;5.75;0.80;;;;;;;;;;5052700;28;20037;-62
2021/04/25 09:01:56;;;;;;;5.97;1.63;;;;;;;;;;5053693;28;20106;-62
2021/04/25 09:04:41;;;;;;;5.95;1.05;;;;;;;;;;5052565;28;20499;-62
2021/04/25 09:07:26;;;;;;;6.80;1.10;;;;;;;;;;5052696;28;20048;-62
2021/04/25 09:10:12;;;;;;;6.55;1.33;;;;;;;;;;5051995;28;20049;-61
2021/04/25 09:12:57;;;;;;;6.60;1.15;;;;;;;;;;5052793;28;20060;-63
2021/04/25 09:15:43;;;;;;;5.32;1.40;;;;;;;;;;5052130;28;20056;-62
2021/04/25 09:18:31;;;;;;;4.75;1.50;;;;;;;;;;5052275;28;20511;-61
2021/04/25 09:21:17;;;;;;;15.43;1.20;;;;;;;;;;5057824;28;20080;-62
2021/04/25 09:24:20;;;;;;;4.18;1.05;;;;;;;;;;5071017;28;20044;-62
2021/04/25 09:27:05;;;;;;;5.13;1.45;;;;;;;;;;5072480;28;20044;-62
2021/04/25 09:29:51;;;;;;;6.82;1.25;;;;;;;;;;5072121;28;20059;-62
2021/04/25 09:32:36;;;;;;;3.88;1.08;;;;;;;;;;5058255;28;20056;-60
2021/04/25 09:35:22;;;;;;;8.02;1.50;;;;;;;;;;5052290;28;20052;-62
2021/04/25 09:38:14;;;;;;;4.30;1.00;;;;;;;;;;5052431;28;20048;-62
2021/04/25 09:40:59;;;;;;;4.68;0.95;;;;;;;;;;5051862;28;20049;-62
2021/04/25 09:43:46;;;;;;;1.65;0.75;;;;;;;;;;5053126;28;20380;-62
2021/04/25 09:46:51;;;;;;;7.13;1.08;;;;;;;;;;5053086;28;20052;-62
2021/04/25 09:49:37;;;;;;;10.57;1.42;;;;;;;;;;5051690;28;20049;-61
2021/04/25 09:52:37;;;;;;;6.40;0.95;;;;;;;;;;5056489;28;20036;-61
2021/04/25 09:55:29;;;;;;;6.72;1.83;;;;;;;;;;5071901;28;20040;-61
2021/04/25 09:58:14;;;;;;;8.68;1.25;;;;;;;;;;5072050;28;20040;-61
2021/04/25 10:00:59;;;;;;;5.25;1.58;;;;;;;;;;5071787;28;20048;-61
2021/04/25 10:03:47;;;;;;;5.35;1.05;;;;;;;;;;5058242;28;20041;-61
2021/04/25 10:06:48;;;;;;;4.50;1.05;;;;;;;;;;5050797;28;20041;-61
2021/04/25 10:09:34;;;;;;;3.83;0.93;;;;;;;;;;5051593;28;20096;-61
2021/04/25 10:12:20;;;;;;;9.70;2.22;;;;;;;;;;5051764;28;20045;-61
2021/04/25 10:15:05;;;;;;;5.63;1.52;;;;;;;;;;5051647;28;20079;-61
2021/04/25 10:17:51;;;;;;;4.40;1.75;;;;;;;;;;5051729;28;20049;-61
2021/04/25 10:20:36;;;;;;;6.78;1.92;;;;;;;;;;5036401;28;20044;-61
2021/04/25 10:23:22;;;;;;;4.75;1.30;;;;;;;;;;5054845;28;20083;-61
2021/04/25 10:26:10;;;;;;;3.10;0.90;;;;;;;;;;5072564;28;20072;-60
2021/04/25 10:28:56;;;;;;;7.28;1.30;;;;;;;;;;5075725;28;20446;-61
2021/04/25 10:31:41;;;;;;;3.95;1.40;;;;;;;;;;5074646;28;20045;-61
2021/04/25 10:34:26;;;;;;;6.75;1.55;;;;;;;;;;5075460;28;20528;-61
2021/04/25 10:37:12;;;;;;;5.60;1.00;;;;;;;;;;5075340;28;20502;-61
2021/04/25 10:39:57;;;;;;;6.78;1.05;;;;;;;;;;5055939;28;20124;-60
2021/04/25 10:42:52;;;;;;;5.72;1.63;;;;;;;;;;5055520;28;20079;-61
2021/04/25 10:46:00;;;;;;;4.75;1.20;;;;;;;;;;5054137;28;20515;-61
2021/04/25 10:48:48;;;;;;;5.60;1.00;;;;;;;;;;5055440;28;20140;-61
2021/04/25 10:51:42;;;;;;;10.98;1.35;;;;;;;;;;5054983;28;20053;-61
2021/04/25 10:54:28;;;;;;;3.20;1.25;;;;;;;;;;5054745;28;20044;-62
2021/04/25 10:57:13;;;;;;;5.65;1.33;;;;;;;;;;5055219;28;20045;-62
2021/04/25 11:00:22;;;;;;;8.52;1.58;;;;;;;;;;5055760;28;20514;-62
2021/04/25 11:03:11;;;;;;;8.63;1.48;;;;;;;;;;5055193;28;20072;-62
2021/04/25 11:05:56;;;;;;;10.38;1.27;;;;;;;;;;5054958;28;20168;-61
2021/04/25 11:08:42;;;;;;;4.40;0.85;;;;;;;;;;5054871;28;20041;-62
2021/04/25 11:11:31;;;;;;;6.60;1.15;;;;;;;;;;5054601;28;20041;-62
2021/04/25 11:14:17;;;;;;;6.32;1.40;;;;;;;;;;5054673;28;20467;-62
2021/04/25 11:17:23;;;;;;;5.70;1.30;;;;;;;;;;5053462;28;20040;-63
2021/04/25 11:20:27;;;;;;;8.02;1.17;;;;;;;;;;5054432;28;20491;-62
2021/04/25 11:23:30;;;;;;;6.00;1.42;;;;;;;;;;5054620;28;20048;-62
2021/04/25 11:26:34;;;;;;;4.07;0.85;;;;;;;;;;5054611;28;20041;-62
2021/04/25 11:29:26;;;;;;;3.58;1.10;;;;;;;;;;5066124;28;20429;-62
2021/04/25 11:32:24;;;;;;;7.82;1.10;;;;;;;;;;5074029;28;20048;-63
2021/04/25 11:35:11;;;;;;;6.32;1.88;;;;;;;;;;5074424;28;20084;-62
2021/04/25 11:37:59;;;;;;;5.85;1.25;;;;;;;;;;5073921;28;20044;-63
2021/04/25 11:40:44;;;;;;;5.50;1.50;;;;;;;;;;5073369;28;20067;-62
2021/04/25 11:43:30;;;;;;;5.25;1.75;;;;;;;;;;5065096;28;20099;-63
2021/04/25 11:46:15;;;;;;;11.43;2.25;;;;;;;;;;5054702;28;20040;-62
2021/04/25 11:49:01;;;;;;;4.53;1.38;;;;;;;;;;5054312;28;20056;-61
2021/04/25 11:51:46;;;;;;;4.35;1.05;;;;;;;;;;5053721;28;20045;-62
2021/04/25 11:54:32;;;;;;;4.55;1.40;;;;;;;;;;5053940;28;20041;-61
2021/04/25 11:57:18;;;;;;;3.20;1.02;;;;;;;;;;5053813;28;20111;-62
2021/04/25 12:00:04;;;;;;;3.88;1.20;;;;;;;;;;5072071;28;20445;-62
2021/04/25 12:02:54;;;;;;;4.93;0.90;;;;;;;;;;5073955;28;20045;-62
2021/04/25 12:05:39;;;;;;;10.45;1.80;;;;;;;;;;5073752;28;20044;-62
2021/04/25 12:08:24;;;;;;;5.28;1.30;;;;;;;;;;5073783;28;20518;-62
2021/04/25 12:11:09;;;;;;;8.88;1.48;;;;;;;;;;5073489;28;20045;-62
2021/04/25 12:13:55;;;;;;;12.85;2.75;;;;;;;;;;5057724;28;20065;-62
2021/04/25 12:16:40;;;;;;;5.97;1.02;;;;;;;;;;5053394;28;20041;-62
2021/04/25 12:19:25;;;;;;;5.63;1.67;;;;;;;;;;5053411;28;20396;-62
2021/04/25 12:22:11;;;;;;;3.80;0.95;;;;;;;;;;5053716;28;20131;-62
2021/04/25 12:24:57;;;;;;;4.55;1.40;;;;;;;;;;5052411;28;20052;-62
2021/04/25 12:27:52;;;;;;;5.68;1.10;;;;;;;;;;5052315;28;20339;-62
2021/04/25 12:30:37;;;;;;;6.00;1.13;;;;;;;;;;5053390;28;20106;-62
2021/04/25 12:33:23;;;;;;;6.57;1.00;;;;;;;;;;5053386;28;20565;-62
2021/04/25 12:36:09;;;;;;;3.35;0.90;;;;;;;;;;5053178;28;20048;-62
2021/04/25 12:39:00;;;;;;;4.35;0.98;;;;;;;;;;5053342;28;20041;-62
2021/04/25 12:41:49;;;;;;;7.00;2.28;;;;;;;;;;5052847;28;20526;-62
2021/04/25 12:44:38;;;;;;;7.05;1.08;;;;;;;;;;5069361;22;20041;-60
2021/04/25 12:47:30;;;;;;;3.97;0.60;;;;;;;;;;5092368;28;20413;-61
2021/04/25 12:50:15;;;;;;;7.43;1.17;;;;;;;;;;5092182;28;20036;-61
2021/04/25 12:53:00;;;;;;;8.60;1.30;;;;;;;;;;5093038;28;20058;-61
2021/04/25 12:55:47;;;;;;;8.35;1.20;;;;;;;;;;5093218;28;20127;-61
2021/04/25 12:58:32;;;;;;;6.10;1.15;;;;;;;;;;5092154;28;20036;-61
2021/04/25 13:01:20;;;;;;;4.35;1.30;;;;;;;;;;5076063;28;20677;-63
2021/04/25 13:04:25;;;;;;;4.43;1.25;;;;;;;;;;5092896;28;20493;-64
2021/04/25 13:07:28;;;;;;;6.72;1.15;;;;;;;;;;5092071;28;20039;-64
2021/04/25 13:10:15;;;;;;;9.60;0.90;;;;;;;;;;5092767;28;20044;-63
2021/04/25 13:13:00;;;;;;;8.15;1.10;;;;;;;;;;5092991;28;20044;-63
2021/04/25 13:15:46;;;;;;;10.50;1.52;;;;;;;;;;5092727;28;20051;-63
2021/04/25 13:18:37;;;;;;;5.50;1.00;;;;;;;;;;5081000;28;20048;-63
2021/04/25 13:21:22;;;;;;;8.45;1.48;;;;;;;;;;5072147;28;20490;-64
2021/04/25 13:24:08;;;;;;;3.17;1.00;;;;;;;;;;5071380;28;20123;-63
2021/04/25 13:26:53;;;;;;;6.97;2.05;;;;;;;;;;5072527;28;20045;-63
2021/04/25 13:29:39;;;;;;;5.13;0.90;;;;;;;;;;5089477;28;20418;-64
2021/04/25 13:32:24;;;;;;;7.28;1.10;;;;;;;;;;5092498;28;20052;-64
2021/04/25 13:35:10;;;;;;;8.52;1.85;;;;;;;;;;5092455;28;20040;-63
2021/04/25 13:37:56;;;;;;;5.07;1.10;;;;;;;;;;5091822;28;20040;-64
2021/04/25 13:40:41;;;;;;;8.07;1.40;;;;;;;;;;5071999;28;20053;-63
2021/04/25 13:43:27;;;;;;;5.60;1.92;;;;;;;;;;5072185;28;20111;-63
2021/04/25 13:46:12;;;;;;;8.25;1.35;;;;;;;;;;5072065;28;20040;-64
2021/04/25 13:48:57;;;;;;;7.25;1.60;;;;;;;;;;5077250;28;20044;-64
2021/04/25 13:51:43;;;;;;;3.97;1.55;;;;;;;;;;5091984;28;20040;-64
2021/04/25 13:54:28;;;;;;;5.15;1.00;;;;;;;;;;5092129;28;20047;-64
2021/04/25 13:57:14;;;;;;;7.10;1.70;;;;;;;;;;5092151;28;20048;-64
2021/04/25 14:00:01;;;;;;;6.07;1.20;;;;;;;;;;5080516;28;20139;-64
2021/04/25 14:02:46;;;;;;;5.57;1.55;;;;;;;;;;5071794;28;20036;-64
2021/04/25 14:05:32;;;;;;;5.18;1.55;;;;;;;;;;5056744;28;20072;-64
2021/04/25 14:08:17;;;;;;;5.00;1.27;;;;;;;;;;5072083;28;20044;-64
2021/04/25 14:11:03;;;;;;;8.05;1.92;;;;;;;;;;5088299;28;20048;-64
2021/04/25 14:13:48;;;;;;;5.50;1.20;;;;;;;;;;5092036;28;20410;-63
2021/04/25 14:16:33;;;;;;;7.60;1.55;;;;;;;;;;5091877;28;20048;-64
2021/04/25 14:19:19;;;;;;;6.13;1.70;;;;;;;;;;5091566;28;20044;-64
2021/04/25 14:22:04;;;;;;;8.52;1.85;;;;;;;;;;5091903;28;20052;-65
2021/04/25 14:24:50;;;;;;;6.10;1.30;;;;;;;;;;5091806;28;20040;-64
2021/04/25 14:27:35;;;;;;;6.07;1.42;;;;;;;;;;5091867;28;20115;-65
2021/04/25 14:30:24;;;;;;;6.20;1.38;;;;;;;;;;5090923;28;20044;-64
2021/04/25 14:33:09;;;;;;;7.72;1.92;;;;;;;;;;5091629;28;20123;-65
2021/04/25 14:35:54;;;;;;;6.13;1.38;;;;;;;;;;5091756;28;20048;-65
2021/04/25 14:38:45;;;;;;;5.85;1.58;;;;;;;;;;5091813;28;20043;-65
2021/04/25 14:41:31;;;;;;;4.72;1.52;;;;;;;;;;5079251;28;20045;-64
2021/04/25 14:44:16;;;;;;;7.75;1.30;;;;;;;;;;5071607;28;20451;-63
2021/04/25 14:47:01;;;;;;;6.82;1.98;;;;;;;;;;5071625;28;20076;-64
2021/04/25 14:49:47;;;;;;;7.05;1.70;;;;;;;;;;5071264;28;20041;-64
2021/04/25 14:52:32;;;;;;;8.45;1.50;;;;;;;;;;5089102;28;20494;-64
2021/04/25 14:55:18;;;;;;;5.68;1.48;;;;;;;;;;5091547;28;20437;-64
2021/04/25 14:58:03;;;;;;;9.90;1.42;;;;;;;;;;5091437;28;20044;-64
2021/04/25 15:00:48;;;;;;;9.07;1.50;;;;;;;;;;5089567;28;20509;-64
2021/04/25 15:03:34;;;;;;;5.88;1.45;;;;;;;;;;5091658;28;20422;-64
2021/04/25 15:06:20;;;;;;;6.80;1.63;;;;;;;;;;5091382;28;20036;-64
2021/04/25 15:09:05;;;;;;;8.70;2.05;;;;;;;;;;5091467;28;20506;-64
2021/04/25 15:11:50;;;;;;;7.05;1.50;;;;;;;;;;5077538;28;20052;-64
2021/04/25 15:14:35;;;;;;;5.70;1.30;;;;;;;;;;5074821;28;20044;-64
2021/04/25 15:17:21;;;;;;;4.50;1.00;;;;;;;;;;5074761;28;20067;-63
2021/04/25 15:20:07;;;;;;;7.22;1.80;;;;;;;;;;5074633;28;20044;-64
2021/04/25 15:22:52;;;;;;;6.32;1.10;;;;;;;;;;5093697;28;20040;-64
2021/04/25 15:25:37;;;;;;;5.30;0.88;;;;;;;;;;5094877;28;20044;-63
2021/04/25 15:28:24;;;;;;;8.43;1.08;;;;;;;;;;5095053;28;20085;-64
2021/04/25 15:31:11;;;;;;;7.30;1.83;;;;;;;;;;5092078;28;20052;-65
2021/04/25 15:33:56;;;;;;;6.43;1.30;;;;;;;;;;5074646;28;20056;-64
2021/04/25 15:36:42;;;;;;;5.60;1.50;;;;;;;;;;5074881;28;20182;-64
2021/04/25 15:39:27;;;;;;;7.15;1.52;;;;;;;;;;5073104;28;20502;-65
2021/04/25 15:42:13;;;;;;;5.53;1.42;;;;;;;;;;5081915;28;20044;-64
2021/04/25 15:44:58;;;;;;;5.13;1.15;;;;;;;;;;5093184;28;20051;-64
2021/04/25 15:47:44;;;;;;;5.07;1.20;;;;;;;;;;5079175;28;20497;-64
2021/04/25 15:50:29;;;;;;;8.30;1.10;;;;;;;;;;5094170;28;20486;-65
2021/04/25 15:53:15;;;;;;;7.55;1.63;;;;;;;;;;5092679;28;20048;-64
2021/04/25 15:56:00;;;;;;;7.75;1.60;;;;;;;;;;5094402;28;20048;-64
2021/04/25 15:58:46;;;;;;;3.90;1.42;;;;;;;;;;5094270;28;20043;-65
2021/04/25 16:01:31;;;;;;;4.43;1.27;;;;;;;;;;5072530;28;20048;-64
2021/04/25 16:04:16;;;;;;;6.82;1.33;;;;;;;;;;5064241;28;20075;-64
2021/04/25 16:07:02;;;;;;;6.07;1.10;;;;;;;;;;5083029;28;20041;-64
2021/04/25 16:09:47;;;;;;;6.72;1.73;;;;;;;;;;5086552;28;20047;-64
2021/04/25 16:12:32;;;;;;;5.28;1.40;;;;;;;;;;5078123;28;20044;-64
2021/04/25 16:15:18;;;;;;;5.70;1.40;;;;;;;;;;5078983;28;20469;-64
2021/04/25 16:18:03;;;;;;;5.82;1.13;;;;;;;;;;5080881;28;20049;-64
2021/04/25 16:20:50;;;;;;;5.30;1.88;;;;;;;;;;5072179;28;20044;-64
2021/04/25 16:23:35;;;;;;;6.95;1.33;;;;;;;;;;5068656;28;20135;-64
2021/04/25 16:26:21;;;;;;;8.48;1.23;;;;;;;;;;5071293;28;20048;-63
2021/04/25 16:29:06;;;;;;;5.55;1.73;;;;;;;;;;5084582;28;20057;-64
2021/04/25 16:31:52;;;;;;;9.57;1.88;;;;;;;;;;5087943;28;20048;-64
2021/04/25 16:34:37;;;;;;;6.57;1.67;;;;;;;;;;5090494;28;20044;-64
2021/04/25 16:37:23;;;;;;;6.57;1.35;;;;;;;;;;5091842;28;20612;-64